Time;durP1;ratioP1;P1;durP2;ratioP2;P2;SDS_P1;SDS_P2;PMS_P1;PMS_P2;Temp;Humidity;BMP_temperature;BMP_pressure;BME280_temperature;BME280_humidity;BME280_pressure;Samples;Min_cycle;Max_cycle;Signal;HPM_P1;HPM_P2
2021/04/18 00:00:17;;;;;;;;;;;;;;;;;;5070781;28;19931;-68
2021/04/18 00:02:44;;;;;;;;;;;;;;;;;;5072123;28;19967;-68
2021/04/18 00:05:10;;;;;;;;;;;;;;;;;;5075318;28;19942;-69
2021/04/18 00:07:37;;;;;;;;;;;;;;;;;;5071602;28;19932;-69
2021/04/18 00:10:03;;;;;;;;;;;;;;;;;;5079292;28;19935;-68
2021/04/18 00:12:30;;;;;;;;;;;;;;;;;;5082236;28;19928;-68
2021/04/18 00:14:57;;;;;;;;;;;;;;;;;;5076263;28;19931;-69
2021/04/18 00:17:23;;;;;;;;;;;;;;;;;;5077797;28;20418;-68
2021/04/18 00:19:50;;;;;;;;;;;;;;;;;;5067998;28;20503;-69
2021/04/18 00:22:16;;;;;;;;;;;;;;;;;;5085552;28;19931;-69
2021/04/18 00:24:42;;;;;;;;;;;;;;;;;;5076424;28;20465;-68
2021/04/18 00:27:09;;;;;;;;;;;;;;;;;;5078892;28;19924;-69
2021/04/18 00:29:36;;;;;;;;;;;;;;;;;;5075559;28;19939;-69
2021/04/18 00:32:02;;;;;;;;;;;;;;;;;;5071369;28;19935;-68
2021/04/18 00:34:29;;;;;;;;;;;;;;;;;;5072974;28;19965;-69
2021/04/18 00:36:55;;;;;;;;;;;;;;;;;;5073372;28;19929;-69
2021/04/18 00:39:22;;;;;;;;;;;;;;;;;;5072675;28;19925;-69
2021/04/18 00:41:48;;;;;;;;;;;;;;;;;;5078892;28;19927;-68
2021/04/18 00:44:15;;;;;;;;;;;;;;;;;;5072274;28;19964;-69
2021/04/18 00:46:41;;;;;;;;;;;;;;;;;;5074717;28;19931;-68
2021/04/18 00:49:08;;;;;;;;;;;;;;;;;;5082213;28;19924;-68
2021/04/18 00:51:34;;;;;;;;;;;;;;;;;;5071137;28;20006;-69
2021/04/18 00:54:01;;;;;;;;;;;;;;;;;;5071962;28;20019;-68
2021/04/18 00:56:27;;;;;;;;;;;;;;;;;;5077089;28;19931;-69
2021/04/18 00:58:54;;;;;;;;;;;;;;;;;;5070318;28;19932;-68
2021/04/18 01:01:20;;;;;;;;;;;;;;;;;;5073290;28;20311;-68
2021/04/18 01:03:47;;;;;;;;;;;;;;;;;;5073062;28;19924;-68
2021/04/18 01:06:13;;;;;;;;;;;;;;;;;;5068416;28;20338;-69
2021/04/18 01:08:40;;;;;;;;;;;;;;;;;;5075902;28;19940;-69
2021/04/18 01:11:07;;;;;;;;;;;;;;;;;;5071058;28;19964;-68
2021/04/18 01:13:34;;;;;;;;;;;;;;;;;;5068143;28;20051;-68
2021/04/18 01:16:00;;;;;;;;;;;;;;;;;;5069426;28;19936;-68
2021/04/18 01:18:27;;;;;;;;;;;;;;;;;;5077780;28;19928;-68
2021/04/18 01:20:53;;;;;;;;;;;;;;;;;;5076258;28;19928;-68
2021/04/18 01:23:19;;;;;;;;;;;;;;;;;;5074732;28;19925;-67
2021/04/18 01:25:46;;;;;;;;;;;;;;;;;;5075174;28;20011;-68
2021/04/18 01:28:13;;;;;;;;;;;;;;;;;;5078766;28;19928;-67
2021/04/18 01:30:39;;;;;;;;;;;;;;;;;;5070996;28;20170;-68
2021/04/18 01:33:06;;;;;;;;;;;;;;;;;;5069121;28;19925;-68
2021/04/18 01:35:32;;;;;;;;;;;;;;;;;;5080174;28;20009;-67
2021/04/18 01:37:59;;;;;;;;;;;;;;;;;;5066841;28;19924;-68
2021/04/18 01:40:25;;;;;;;;;;;;;;;;;;5072599;28;19924;-67
2021/04/18 01:42:52;;;;;;;;;;;;;;;;;;5069965;28;20423;-68
2021/04/18 01:45:18;;;;;;;;;;;;;;;;;;5074640;28;20031;-68
2021/04/18 01:47:45;;;;;;;;;;;;;;;;;;5081979;28;20295;-68
2021/04/18 01:50:11;;;;;;;;;;;;;;;;;;5075739;28;19924;-68
2021/04/18 01:52:38;;;;;;;;;;;;;;;;;;5072652;28;19925;-68
2021/04/18 01:55:04;;;;;;;;;;;;;;;;;;5074782;28;19935;-68
2021/04/18 01:57:32;;;;;;;;;;;;;;;;;;5080119;28;19924;-69
2021/04/18 01:59:58;;;;;;;;;;;;;;;;;;5069583;28;20297;-68
2021/04/18 02:02:24;;;;;;;;;;;;;;;;;;5075890;28;19924;-68
2021/04/18 02:04:51;;;;;;;;;;;;;;;;;;5076209;28;20613;-68
2021/04/18 02:07:17;;;;;;;;;;;;;;;;;;5072665;28;19925;-68
2021/04/18 02:09:44;;;;;;;;;;;;;;;;;;5078134;28;20354;-67
2021/04/18 02:12:10;;;;;;;;;;;;;;;;;;5071137;28;19931;-68
2021/04/18 02:14:37;;;;;;;;;;;;;;;;;;5076744;28;19936;-69
2021/04/18 02:17:03;;;;;;;;;;;;;;;;;;5078770;28;19924;-68
2021/04/18 02:19:30;;;;;;;;;;;;;;;;;;5076959;28;19971;-68
2021/04/18 02:21:56;;;;;;;;;;;;;;;;;;5065467;28;19925;-68
2021/04/18 02:24:23;;;;;;;;;;;;;;;;;;5064474;28;19928;-69
2021/04/18 02:26:50;;;;;;;;;;;;;;;;;;5068613;28;20011;-68
2021/04/18 02:29:16;;;;;;;;;;;;;;;;;;5068959;28;19925;-68
2021/04/18 02:31:42;;;;;;;;;;;;;;;;;;5073019;28;19934;-67
2021/04/18 02:34:09;;;;;;;;;;;;;;;;;;5072771;28;19931;-68
2021/04/18 02:36:35;;;;;;;;;;;;;;;;;;5072657;28;19928;-68
2021/04/18 02:39:02;;;;;;;;;;;;;;;;;;5080415;28;20292;-69
2021/04/18 02:41:28;;;;;;;;;;;;;;;;;;5077752;28;20019;-69
2021/04/18 02:43:55;;;;;;;;;;;;;;;;;;5075447;28;19924;-68
2021/04/18 02:46:21;;;;;;;;;;;;;;;;;;5079665;28;19930;-68
2021/04/18 02:48:48;;;;;;;;;;;;;;;;;;5075808;28;20276;-67
2021/04/18 02:51:14;;;;;;;;;;;;;;;;;;5074873;28;19929;-68
2021/04/18 02:53:41;;;;;;;;;;;;;;;;;;5078105;28;19928;-68
2021/04/18 02:56:07;;;;;;;;;;;;;;;;;;5077182;28;19931;-67
2021/04/18 02:58:34;;;;;;;;;;;;;;;;;;5078084;28;19925;-67
2021/04/18 03:01:01;;;;;;;;;;;;;;;;;;5076387;28;19955;-68
2021/04/18 03:03:27;;;;;;;;;;;;;;;;;;5075739;28;19982;-67
2021/04/18 03:05:53;;;;;;;;;;;;;;;;;;5076634;28;19924;-68
2021/04/18 03:08:20;;;;;;;;;;;;;;;;;;5079208;28;19978;-67
2021/04/18 03:10:46;;;;;;;;;;;;;;;;;;5064147;28;20000;-67
2021/04/18 03:13:13;;;;;;;;;;;;;;;;;;5072320;28;19929;-68
2021/04/18 03:15:39;;;;;;;;;;;;;;;;;;5081394;28;20014;-68
2021/04/18 03:18:07;;;;;;;;;;;;;;;;;;5075907;28;20292;-68
2021/04/18 03:20:34;;;;;;;;;;;;;;;;;;5067421;28;19936;-68
2021/04/18 03:23:00;;;;;;;;;;;;;;;;;;5081567;28;19931;-68
2021/04/18 03:25:27;;;;;;;;;;;;;;;;;;5077767;28;20441;-68
2021/04/18 03:27:53;;;;;;;;;;;;;;;;;;5078265;28;19929;-68
2021/04/18 03:30:20;;;;;;;;;;;;;;;;;;5076749;28;20506;-68
2021/04/18 03:32:46;;;;;;;;;;;;;;;;;;5077272;28;20011;-68
2021/04/18 03:35:13;;;;;;;;;;;;;;;;;;5073646;28;20442;-68
2021/04/18 03:37:39;;;;;;;;;;;;;;;;;;5066528;28;19978;-68
2021/04/18 03:40:06;;;;;;;;;;;;;;;;;;5072926;28;19924;-68
2021/04/18 03:42:32;;;;;;;;;;;;;;;;;;5073879;28;19925;-68
2021/04/18 03:44:59;;;;;;;;;;;;;;;;;;5078987;28;19953;-68
2021/04/18 03:47:25;;;;;;;;;;;;;;;;;;5070304;28;19932;-68
2021/04/18 03:49:52;;;;;;;;;;;;;;;;;;5073092;28;20308;-67
2021/04/18 03:52:18;;;;;;;;;;;;;;;;;;5073012;28;19924;-67
2021/04/18 03:54:45;;;;;;;;;;;;;;;;;;5077848;28;19950;-68
2021/04/18 03:57:11;;;;;;;;;;;;;;;;;;5085621;28;20007;-67
2021/04/18 03:59:38;;;;;;;;;;;;;;;;;;5080844;28;19924;-67
2021/04/18 04:02:04;;;;;;;;;;;;;;;;;;5070544;28;19928;-67
2021/04/18 04:04:31;;;;;;;;;;;;;;;;;;5069640;28;19958;-68
2021/04/18 04:06:57;;;;;;;;;;;;;;;;;;5071069;28;19930;-69
2021/04/18 04:09:24;;;;;;;;;;;;;;;;;;5079599;28;19954;-68
2021/04/18 04:11:50;;;;;;;;;;;;;;;;;;5081762;28;19924;-69
2021/04/18 04:14:17;;;;;;;;;;;;;;;;;;5075826;28;20495;-68
2021/04/18 04:16:43;;;;;;;;;;;;;;;;;;5075249;28;19942;-68
2021/04/18 04:19:10;;;;;;;;;;;;;;;;;;5075062;28;19928;-69
2021/04/18 04:21:36;;;;;;;;;;;;;;;;;;5077778;28;19938;-69
2021/04/18 04:24:03;;;;;;;;;;;;;;;;;;5082444;28;19928;-68
2021/04/18 04:26:29;;;;;;;;;;;;;;;;;;5069451;28;20737;-68
2021/04/18 04:28:55;;;;;;;;;;;;;;;;;;5081254;28;19928;-68
2021/04/18 04:31:22;;;;;;;;;;;;;;;;;;5086601;28;19942;-68
2021/04/18 04:33:49;;;;;;;;;;;;;;;;;;5073412;28;20047;-69
2021/04/18 04:36:15;;;;;;;;;;;;;;;;;;5082984;28;19959;-68
2021/04/18 04:38:42;;;;;;;;;;;;;;;;;;5077588;28;19931;-69
2021/04/18 04:41:08;;;;;;;;;;;;;;;;;;5073450;28;19924;-69
2021/04/18 04:43:35;;;;;;;;;;;;;;;;;;5073470;28;19924;-69
2021/04/18 04:46:01;;;;;;;;;;;;;;;;;;5071860;28;19971;-68
2021/04/18 04:48:28;;;;;;;;;;;;;;;;;;5086035;28;19924;-69
2021/04/18 04:50:54;;;;;;;;;;;;;;;;;;5072167;28;20444;-68
2021/04/18 04:53:21;;;;;;;;;;;;;;;;;;5071514;28;19924;-69
2021/04/18 04:55:47;;;;;;;;;;;;;;;;;;5090576;28;19980;-68
2021/04/18 04:58:15;;;;;;;;;;;;;;;;;;5090871;28;19935;-69
2021/04/18 05:00:43;;;;;;;;;;;;;;;;;;5078691;28;19924;-69
2021/04/18 05:03:10;;;;;;;;;;;;;;;;;;5069340;28;19947;-69
2021/04/18 05:05:36;;;;;;;;;;;;;;;;;;5076043;28;19932;-68
2021/04/18 05:08:03;;;;;;;;;;;;;;;;;;5074083;28;19932;-68
2021/04/18 05:10:29;;;;;;;;;;;;;;;;;;5072086;28;19928;-69
2021/04/18 05:12:56;;;;;;;;;;;;;;;;;;5074274;28;19932;-69
2021/04/18 05:15:22;;;;;;;;;;;;;;;;;;5085473;28;20003;-68
2021/04/18 05:17:49;;;;;;;;;;;;;;;;;;5080758;28;20424;-69
2021/04/18 05:20:15;;;;;;;;;;;;;;;;;;5074444;28;19999;-68
2021/04/18 05:22:42;;;;;;;;;;;;;;;;;;5069699;28;19931;-69
2021/04/18 05:25:08;;;;;;;;;;;;;;;;;;5070030;28;19925;-69
2021/04/18 05:27:35;;;;;;;;;;;;;;;;;;5076746;28;20010;-69
2021/04/18 05:30:01;;;;;;;;;;;;;;;;;;5066484;28;20062;-69
2021/04/18 05:32:28;;;;;;;;;;;;;;;;;;5075563;28;19924;-69
2021/04/18 05:34:54;;;;;;;;;;;;;;;;;;5067785;28;20045;-69
2021/04/18 05:37:21;;;;;;;;;;;;;;;;;;5069754;28;19932;-69
2021/04/18 05:39:47;;;;;;;;;;;;;;;;;;5075481;28;19934;-68
2021/04/18 05:42:14;;;;;;;;;;;;;;;;;;5087867;28;20058;-69
2021/04/18 05:44:40;;;;;;;;;;;;;;;;;;5074578;28;19924;-69
2021/04/18 05:47:07;;;;;;;;;;;;;;;;;;5080945;28;19931;-69
2021/04/18 05:49:34;;;;;;;;;;;;;;;;;;5082678;28;20911;-69
2021/04/18 05:52:00;;;;;;;;;;;;;;;;;;5079408;28;19973;-70
2021/04/18 05:54:27;;;;;;;;;;;;;;;;;;5076601;28;19923;-70
2021/04/18 05:56:53;;;;;;;;;;;;;;;;;;5075706;28;19928;-70
2021/04/18 05:59:20;;;;;;;;;;;;;;;;;;5077946;28;19924;-70
2021/04/18 06:01:46;;;;;;;;;;;;;;;;;;5074020;28;19959;-70
2021/04/18 06:04:12;;;;;;;;;;;;;;;;;;5070937;28;19929;-69
2021/04/18 06:06:39;;;;;;;;;;;;;;;;;;5073046;28;19928;-69
2021/04/18 06:09:05;;;;;;;;;;;;;;;;;;5076099;28;19931;-69
2021/04/18 06:11:32;;;;;;;;;;;;;;;;;;5081669;28;20035;-69
2021/04/18 06:13:58;;;;;;;;;;;;;;;;;;5076441;28;20007;-70
2021/04/18 06:16:25;;;;;;;;;;;;;;;;;;5082226;28;20303;-69
2021/04/18 06:18:51;;;;;;;;;;;;;;;;;;5078982;28;19970;-69
2021/04/18 06:21:18;;;;;;;;;;;;;;;;;;5078489;28;19924;-69
2021/04/18 06:23:44;;;;;;;;;;;;;;;;;;5078173;28;19979;-69
2021/04/18 06:26:13;;;;;;;;;;;;;;;;;;5077298;28;19925;-69
2021/04/18 06:28:39;;;;;;;;;;;;;;;;;;5087039;28;19924;-69
2021/04/18 06:31:05;;;;;;;;;;;;;;;;;;5078852;28;20346;-69
2021/04/18 06:33:32;;;;;;;;;;;;;;;;;;5078773;28;20019;-69
2021/04/18 06:35:58;;;;;;;;;;;;;;;;;;5073613;28;19929;-69
2021/04/18 06:38:25;;;;;;;;;;;;;;;;;;5082584;28;19951;-69
2021/04/18 06:40:51;;;;;;;;;;;;;;;;;;5081146;28;19928;-69
2021/04/18 06:43:18;;;;;;;;;;;;;;;;;;5075280;28;19933;-69
2021/04/18 06:45:44;;;;;;;;;;;;;;;;;;5076538;28;20289;-69
2021/04/18 06:48:11;;;;;;;;;;;;;;;;;;5073315;28;19934;-69
2021/04/18 06:50:37;;;;;;;;;;;;;;;;;;5073060;28;20392;-69
2021/04/18 06:53:04;;;;;;;;;;;;;;;;;;5074483;28;20104;-69
2021/04/18 06:55:30;;;;;;;;;;;;;;;;;;5082401;28;19928;-69
2021/04/18 06:57:57;;;;;;;;;;;;;;;;;;5073275;28;19924;-69
2021/04/18 07:00:23;;;;;;;;;;;;;;;;;;5071862;28;19925;-69
2021/04/18 07:02:51;;;;;;;;;;;;;;;;;;5072481;28;19931;-68
2021/04/18 07:05:17;;;;;;;;;;;;;;;;;;5073404;28;19932;-69
2021/04/18 07:07:44;;;;;;;;;;;;;;;;;;5077569;28;20446;-69
2021/04/18 07:10:12;;;;;;;;;;;;;;;;;;5078981;28;19985;-69
2021/04/18 07:12:38;;;;;;;;;;;;;;;;;;5074574;28;20179;-69
2021/04/18 07:15:05;;;;;;;;;;;;;;;;;;5073795;28;20407;-69
2021/04/18 07:17:31;;;;;;;;;;;;;;;;;;5076371;28;19930;-69
2021/04/18 07:19:58;;;;;;;;;;;;;;;;;;5073328;28;19924;-69
2021/04/18 07:22:25;;;;;;;;;;;;;;;;;;5077118;28;19972;-70
2021/04/18 07:24:52;;;;;;;;;;;;;;;;;;5070896;28;19928;-66
2021/04/18 07:27:18;;;;;;;;;;;;;;;;;;5068042;28;19931;-68
2021/04/18 07:29:45;;;;;;;;;;;;;;;;;;5075506;28;20018;-69
2021/04/18 07:32:11;;;;;;;;;;;;;;;;;;5082962;28;19930;-69
2021/04/18 07:34:38;;;;;;;;;;;;;;;;;;5074056;28;20311;-68
2021/04/18 07:37:04;;;;;;;;;;;;;;;;;;5082850;28;19924;-68
2021/04/18 07:39:31;;;;;;;;;;;;;;;;;;5080093;28;19925;-69
2021/04/18 07:42:00;;;;;;;;;;;;;;;;;;5086124;28;19924;-68
2021/04/18 07:44:27;;;;;;;;;;;;;;;;;;5079528;28;19955;-69
2021/04/18 07:46:54;;;;;;;;;;;;;;;;;;5074302;28;19947;-68
2021/04/18 07:49:21;;;;;;;;;;;;;;;;;;5077685;28;20343;-69
2021/04/18 07:51:47;;;;;;;;;;;;;;;;;;5063159;28;19925;-69
2021/04/18 07:54:14;;;;;;;;;;;;;;;;;;5063596;28;19924;-69
2021/04/18 07:56:40;;;;;;;;;;;;;;;;;;5061442;28;19928;-69
2021/04/18 07:59:07;;;;;;;;;;;;;;;;;;5061351;28;19932;-69
2021/04/18 08:01:33;;;;;;;;;;;;;;;;;;5066386;28;19925;-69
2021/04/18 08:04:00;;;;;;;;;;;;;;;;;;5068372;28;20380;-69
2021/04/18 08:06:26;;;;;;;;;;;;;;;;;;5069017;28;19932;-69
2021/04/18 08:08:53;;;;;;;;;;;;;;;;;;5070004;28;20388;-69
2021/04/18 08:11:19;;;;;;;;;;;;;;;;;;5075896;28;19925;-68
2021/04/18 08:13:47;;;;;;;;;;;;;;;;;;5075892;28;19924;-69
2021/04/18 08:16:14;;;;;;;;;;;;;;;;;;5068271;28;20288;-69
2021/04/18 08:18:41;;;;;;;;;;;;;;;;;;5073156;28;19932;-69
2021/04/18 08:21:08;;;;;;;;;;;;;;;;;;5064476;28;19924;-69
2021/04/18 08:23:34;;;;;;;;;;;;;;;;;;5082459;28;19924;-69
2021/04/18 08:26:01;;;;;;;;;;;;;;;;;;5069107;28;20514;-69
2021/04/18 08:28:27;;;;;;;;;;;;;;;;;;5068332;28;19925;-69
2021/04/18 08:30:54;;;;;;;;;;;;;;;;;;5073096;28;20025;-68
2021/04/18 08:33:21;;;;;;;;;;;;;;;;;;5068030;28;20449;-69
2021/04/18 08:35:47;;;;;;;;;;;;;;;;;;5067932;28;20195;-68
2021/04/18 08:38:14;;;;;;;;;;;;;;;;;;5070075;28;19924;-69
2021/04/18 08:40:45;;;;;;;;;;;;;;;;;;5071449;28;21230;-69
2021/04/18 08:43:11;;;;;;;;;;;;;;;;;;5080509;28;20115;-67
2021/04/18 08:45:37;;;;;;;;;;;;;;;;;;5073667;28;19924;-67
2021/04/18 08:48:04;;;;;;;;;;;;;;;;;;5067821;28;19924;-68
2021/04/18 08:50:30;;;;;;;;;;;;;;;;;;5074243;28;19963;-68
2021/04/18 08:52:57;;;;;;;;;;;;;;;;;;5065536;28;20272;-68
2021/04/18 08:55:23;;;;;;;;;;;;;;;;;;5068961;28;20014;-69
2021/04/18 08:57:50;;;;;;;;;;;;;;;;;;5069743;28;19924;-67
2021/04/18 09:00:16;;;;;;;;;;;;;;;;;;5067307;28;20019;-68
2021/04/18 09:02:43;;;;;;;;;;;;;;;;;;5065732;28;19928;-68
2021/04/18 09:05:13;;;;;;;;;;;;;;;;;;5061217;28;19928;-68
2021/04/18 09:07:40;;;;;;;;;;;;;;;;;;5069715;28;19929;-68
2021/04/18 09:10:06;;;;;;;;;;;;;;;;;;5066995;28;20386;-68
2021/04/18 09:12:33;;;;;;;;;;;;;;;;;;5058802;28;19990;-67
2021/04/18 09:14:59;;;;;;;;;;;;;;;;;;5064417;28;19924;-68
2021/04/18 09:17:26;;;;;;;;;;;;;;;;;;5076009;28;19930;-66
2021/04/18 09:19:52;;;;;;;;;;;;;;;;;;5068256;28;19933;-66
2021/04/18 09:22:19;;;;;;;;;;;;;;;;;;5068581;28;19985;-67
2021/04/18 09:24:46;;;;;;;;;;;;;;;;;;5062505;28;20024;-68
2021/04/18 09:27:12;;;;;;;;;;;;;;;;;;5062254;28;20433;-65
2021/04/18 09:29:38;;;;;;;;;;;;;;;;;;5064582;28;19947;-66
2021/04/18 09:32:05;;;;;;;;;;;;;;;;;;5063257;28;20062;-65
2021/04/18 09:34:32;;;;;;;;;;;;;;;;;;5063254;28;20390;-65
2021/04/18 09:36:58;;;;;;;;;;;;;;;;;;5063202;28;19963;-65
2021/04/18 09:39:25;;;;;;;;;;;;;;;;;;5064435;28;19931;-65
2021/04/18 09:41:51;;;;;;;;;;;;;;;;;;5066725;28;19965;-64
2021/04/18 09:44:26;;;;;;;;;;;;;;;;;;5073577;28;20384;-67
2021/04/18 09:46:53;;;;;;;;;;;;;;;;;;5070769;28;19932;-67
2021/04/18 09:49:20;;;;;;;;;;;;;;;;;;5079755;28;19928;-68
2021/04/18 09:51:48;;;;;;;;;;;;;;;;;;5071132;28;19925;-67
2021/04/18 09:54:16;;;;;;;;;;;;;;;;;;5071438;28;19932;-67
2021/04/18 09:56:43;;;;;;;;;;;;;;;;;;5074814;28;20397;-67
2021/04/18 09:59:10;;;;;;;;;;;;;;;;;;5066209;28;19932;-67
2021/04/18 10:01:36;;;;;;;;;;;;;;;;;;5075451;28;19925;-67
2021/04/18 10:04:03;;;;;;;;;;;;;;;;;;5072350;28;20011;-67
2021/04/18 10:06:29;;;;;;;;;;;;;;;;;;5073710;28;19959;-67
2021/04/18 10:08:56;;;;;;;;;;;;;;;;;;5069933;28;20380;-67
2021/04/18 10:11:23;;;;;;;;;;;;;;;;;;5070872;28;19929;-66
2021/04/18 10:13:50;;;;;;;;;;;;;;;;;;5068835;28;20482;-66
2021/04/18 10:16:17;;;;;;;;;;;;;;;;;;5072863;28;19975;-67
2021/04/18 10:18:43;;;;;;;;;;;;;;;;;;5070850;28;19928;-69
2021/04/18 10:21:10;;;;;;;;;;;;;;;;;;5067252;28;20392;-69
2021/04/18 10:23:36;;;;;;;;;;;;;;;;;;5071012;28;20304;-68
2021/04/18 10:26:03;;;;;;;;;;;;;;;;;;5072601;28;20018;-68
2021/04/18 10:28:29;;;;;;;;;;;;;;;;;;5066808;28;20003;-68
2021/04/18 10:30:56;;;;;;;;;;;;;;;;;;5067383;28;20006;-67
2021/04/18 10:33:22;;;;;;;;;;;;;;;;;;5068635;28;19924;-68
2021/04/18 10:35:49;;;;;;;;;;;;;;;;;;5068044;28;20031;-67
2021/04/18 10:38:15;;;;;;;;;;;;;;;;;;5070860;28;20023;-68
2021/04/18 10:40:42;;;;;;;;;;;;;;;;;;5069513;28;19967;-69
2021/04/18 10:43:09;;;;;;;;;;;;;;;;;;5069668;28;20019;-68
2021/04/18 10:45:36;;;;;;;;;;;;;;;;;;5075460;28;19924;-68
2021/04/18 10:48:03;;;;;;;;;;;;;;;;;;5067465;28;20031;-66
2021/04/18 10:50:29;;;;;;;;;;;;;;;;;;5063528;28;20014;-66
2021/04/18 10:52:56;;;;;;;;;;;;;;;;;;5062713;28;19928;-67
2021/04/18 10:55:22;;;;;;;;;;;;;;;;;;5063139;28;19933;-67
2021/04/18 10:57:49;;;;;;;;;;;;;;;;;;5065282;28;19928;-67
2021/04/18 11:00:15;;;;;;;;;;;;;;;;;;5065764;28;19964;-67
2021/04/18 11:02:42;;;;;;;;;;;;;;;;;;5064019;28;19925;-67
2021/04/18 11:05:11;;;;;;;;;;;;;;;;;;5060429;28;19924;-67
2021/04/18 11:07:38;;;;;;;;;;;;;;;;;;5071469;28;20015;-66
2021/04/18 11:10:04;;;;;;;;;;;;;;;;;;5062202;28;20018;-66
2021/04/18 11:12:31;;;;;;;;;;;;;;;;;;5064269;28;19938;-66
2021/04/18 11:14:57;;;;;;;;;;;;;;;;;;5064938;28;20015;-67
2021/04/18 11:17:24;;;;;;;;;;;;;;;;;;5063456;28;19976;-66
2021/04/18 11:19:52;;;;;;;;;;;;;;;;;;5067199;28;20016;-66
2021/04/18 11:22:19;;;;;;;;;;;;;;;;;;5063736;28;19924;-68
2021/04/18 11:24:45;;;;;;;;;;;;;;;;;;5065402;28;19925;-66
2021/04/18 11:27:12;;;;;;;;;;;;;;;;;;5066563;28;19979;-67
2021/04/18 11:29:38;;;;;;;;;;;;;;;;;;5066348;28;19931;-65
2021/04/18 11:32:05;;;;;;;;;;;;;;;;;;5068295;28;20038;-69
2021/04/18 11:34:31;;;;;;;;;;;;;;;;;;5067474;28;19994;-65
2021/04/18 11:36:58;;;;;;;;;;;;;;;;;;5061869;28;20391;-66
2021/04/18 11:39:25;;;;;;;;;;;;;;;;;;5063667;28;19924;-66
2021/04/18 11:41:51;;;;;;;;;;;;;;;;;;5064614;28;19925;-66
2021/04/18 11:44:18;;;;;;;;;;;;;;;;;;5047929;28;20439;-67
2021/04/18 11:46:45;;;;;;;;;;;;;;;;;;5066300;28;19932;-67
2021/04/18 11:49:11;;;;;;;;;;;;;;;;;;5050176;28;20038;-67
2021/04/18 11:51:38;;;;;;;;;;;;;;;;;;5063624;28;19987;-67
2021/04/18 11:54:04;;;;;;;;;;;;;;;;;;5049620;28;19928;-67
2021/04/18 11:56:32;;;;;;;;;;;;;;;;;;5063536;28;20058;-66
2021/04/18 11:58:58;;;;;;;;;;;;;;;;;;5066667;28;20412;-67
2021/04/18 12:01:25;;;;;;;;;;;;;;;;;;5069266;28;20384;-66
2021/04/18 12:03:51;;;;;;;;;;;;;;;;;;5045497;28;20021;-71
2021/04/18 12:06:18;;;;;;;;;;;;;;;;;;5063458;28;19932;-68
2021/04/18 12:08:47;;;;;;;;;;;;;;;;;;5065808;28;20053;-67
2021/04/18 12:11:13;;;;;;;;;;;;;;;;;;5063520;28;19958;-68
2021/04/18 12:13:40;;;;;;;;;;;;;;;;;;5063522;28;20068;-67
2021/04/18 12:16:06;;;;;;;;;;;;;;;;;;5072238;28;19972;-67
2021/04/18 12:18:33;;;;;;;;;;;;;;;;;;5069822;28;19995;-67
2021/04/18 12:20:59;;;;;;;;;;;;;;;;;;5077239;28;19959;-68
2021/04/18 12:23:26;;;;;;;;;;;;;;;;;;5076759;28;19985;-67
2021/04/18 12:25:52;;;;;;;;;;;;;;;;;;5076878;28;19938;-67
2021/04/18 12:28:20;;;;;;;;;;;;;;;;;;5075038;28;20345;-67
2021/04/18 12:30:47;;;;;;;;;;;;;;;;;;5083851;28;19988;-67
2021/04/18 12:33:14;;;;;;;;;;;;;;;;;;5081765;28;19932;-68
2021/04/18 12:35:40;;;;;;;;;;;;;;;;;;5071247;28;19985;-67
2021/04/18 12:38:07;;;;;;;;;;;;;;;;;;5069867;28;19924;-67
2021/04/18 12:40:34;;;;;;;;;;;;;;;;;;5065812;28;20023;-68
2021/04/18 12:43:00;;;;;;;;;;;;;;;;;;5074665;28;19974;-68
2021/04/18 12:45:27;;;;;;;;;;;;;;;;;;5068367;28;19925;-68
2021/04/18 12:47:54;;;;;;;;;;;;;;;;;;5074884;28;20016;-67
2021/04/18 12:50:20;;;;;;;;;;;;;;;;;;5065415;28;19924;-68
2021/04/18 12:52:47;;;;;;;;;;;;;;;;;;5078003;28;20023;-71
2021/04/18 12:55:13;;;;;;;;;;;;;;;;;;5066727;28;20027;-70
2021/04/18 12:57:40;;;;;;;;;;;;;;;;;;5065734;28;20028;-67
2021/04/18 13:00:07;;;;;;;;;;;;;;;;;;5072942;28;19931;-68
2021/04/18 13:02:33;;;;;;;;;;;;;;;;;;5077498;28;19928;-67
2021/04/18 13:05:01;;;;;;;;;;;;;;;;;;5085741;28;19943;-70
2021/04/18 13:07:29;;;;;;;;;;;;;;;;;;5069355;28;19928;-69
2021/04/18 13:09:55;;;;;;;;;;;;;;;;;;5071804;28;19924;-68
2021/04/18 13:12:22;;;;;;;;;;;;;;;;;;5076952;28;19956;-69
2021/04/18 13:14:49;;;;;;;;;;;;;;;;;;5067730;28;20228;-68
2021/04/18 13:17:17;;;;;;;;;;;;;;;;;;5072999;28;19924;-68
2021/04/18 13:19:43;;;;;;;;;;;;;;;;;;5056795;28;19931;-68
2021/04/18 13:22:11;;;;;;;;;;;;;;;;;;5072366;28;19931;-69
2021/04/18 13:24:38;;;;;;;;;;;;;;;;;;5069773;28;19924;-66
2021/04/18 13:27:04;;;;;;;;;;;;;;;;;;5062464;28;19925;-67
2021/04/18 13:29:31;;;;;;;;;;;;;;;;;;5065290;28;20331;-69
2021/04/18 13:31:58;;;;;;;;;;;;;;;;;;5063949;28;19932;-68
2021/04/18 13:34:24;;;;;;;;;;;;;;;;;;5064686;28;20354;-68
2021/04/18 13:36:52;;;;;;;;;;;;;;;;;;5061920;28;20006;-68
2021/04/18 13:39:19;;;;;;;;;;;;;;;;;;5047688;28;19936;-68
2021/04/18 13:41:46;;;;;;;;;;;;;;;;;;5061643;28;19924;-68
2021/04/18 13:44:16;;;;;;;;;;;;;;;;;;5052412;28;19936;-69
2021/04/18 13:46:43;;;;;;;;;;;;;;;;;;5059648;28;20380;-68
2021/04/18 13:49:09;;;;;;;;;;;;;;;;;;5066602;28;19993;-68
2021/04/18 13:51:36;;;;;;;;;;;;;;;;;;5062530;28;20359;-68
2021/04/18 13:54:03;;;;;;;;;;;;;;;;;;5057747;28;20025;-68
2021/04/18 13:56:30;;;;;;;;;;;;;;;;;;5060264;28;20392;-67
2021/04/18 13:58:56;;;;;;;;;;;;;;;;;;5062030;28;20023;-67
2021/04/18 14:01:23;;;;;;;;;;;;;;;;;;5067134;28;19979;-67
2021/04/18 14:03:51;;;;;;;;;;;;;;;;;;5060621;28;20228;-66
2021/04/18 14:06:18;;;;;;;;;;;;;;;;;;5061810;28;19925;-67
2021/04/18 14:08:44;;;;;;;;;;;;;;;;;;5064368;28;19924;-68
2021/04/18 14:11:11;;;;;;;;;;;;;;;;;;5066696;28;19943;-66
2021/04/18 14:13:37;;;;;;;;;;;;;;;;;;5064496;28;19925;-68
2021/04/18 14:16:04;;;;;;;;;;;;;;;;;;5062719;28;20488;-68
2021/04/18 14:18:31;;;;;;;;;;;;;;;;;;5060510;28;19925;-69
2021/04/18 14:20:59;;;;;;;;;;;;;;;;;;5068550;28;20035;-67
2021/04/18 14:23:26;;;;;;;;;;;;;;;;;;5042587;28;19925;-68
2021/04/18 14:25:53;;;;;;;;;;;;;;;;;;5062244;28;20415;-70
2021/04/18 14:28:20;;;;;;;;;;;;;;;;;;5067363;28;20281;-69
2021/04/18 14:30:46;;;;;;;;;;;;;;;;;;5067110;28;20684;-67
2021/04/18 14:33:15;;;;;;;;;;;;;;;;;;5066449;28;19928;-68
2021/04/18 14:35:42;;;;;;;;;;;;;;;;;;5065111;28;20372;-68
2021/04/18 14:38:10;;;;;;;;;;;;;;;;;;5066328;28;20373;-67
2021/04/18 14:40:37;;;;;;;;;;;;;;;;;;5062309;28;20392;-67
2021/04/18 14:43:05;;;;;;;;;;;;;;;;;;5066796;28;19932;-68
2021/04/18 14:45:33;;;;;;;;;;;;;;;;;;5065111;28;19925;-68
2021/04/18 14:48:00;;;;;;;;;;;;;;;;;;5065264;28;19972;-68
2021/04/18 14:50:26;;;;;;;;;;;;;;;;;;5047368;28;19943;-68
2021/04/18 14:52:53;;;;;;;;;;;;;;;;;;5063577;28;19932;-68
2021/04/18 14:55:20;;;;;;;;;;;;;;;;;;5069226;28;19978;-68
2021/04/18 14:57:46;;;;;;;;;;;;;;;;;;5064655;28;19924;-67
2021/04/18 15:00:13;;;;;;;;;;;;;;;;;;5062457;28;20023;-68
2021/04/18 15:02:39;;;;;;;;;;;;;;;;;;5067302;28;19924;-69
2021/04/18 15:05:07;;;;;;;;;;;;;;;;;;5050495;28;19924;-69
2021/04/18 15:07:34;;;;;;;;;;;;;;;;;;5065702;28;20540;-69
2021/04/18 15:10:01;;;;;;;;;;;;;;;;;;5068836;28;19968;-68
2021/04/18 15:12:29;;;;;;;;;;;;;;;;;;5063984;28;20015;-68
2021/04/18 15:14:58;;;;;;;;;;;;;;;;;;5060473;28;20004;-68
2021/04/18 15:17:24;;;;;;;;;;;;;;;;;;5046494;28;19932;-69
2021/04/18 15:19:51;;;;;;;;;;;;;;;;;;5062191;28;19932;-68
2021/04/18 15:22:19;;;;;;;;;;;;;;;;;;5059793;28;19925;-69
2021/04/18 15:24:45;;;;;;;;;;;;;;;;;;5044740;28;19928;-67
2021/04/18 15:27:14;;;;;;;;;;;;;;;;;;5062253;28;19924;-68
2021/04/18 15:29:41;;;;;;;;;;;;;;;;;;5070425;28;19965;-69
2021/04/18 15:32:07;;;;;;;;;;;;;;;;;;5061686;28;20019;-68
2021/04/18 15:34:34;;;;;;;;;;;;;;;;;;5061012;28;20011;-68
2021/04/18 15:37:00;;;;;;;;;;;;;;;;;;5060891;28;20015;-68
2021/04/18 15:39:27;;;;;;;;;;;;;;;;;;5065401;28;19932;-68
2021/04/18 15:41:53;;;;;;;;;;;;;;;;;;5067776;28;20035;-69
2021/04/18 15:44:20;;;;;;;;;;;;;;;;;;5060635;28;19975;-68
2021/04/18 15:46:46;;;;;;;;;;;;;;;;;;5062206;28;20464;-68
2021/04/18 15:49:13;;;;;;;;;;;;;;;;;;5064576;28;19933;-68
2021/04/18 15:51:40;;;;;;;;;;;;;;;;;;5058285;28;20024;-68
2021/04/18 15:54:06;;;;;;;;;;;;;;;;;;5059566;28;20292;-67
2021/04/18 15:56:33;;;;;;;;;;;;;;;;;;5058916;28;20015;-67
2021/04/18 15:59:00;;;;;;;;;;;;;;;;;;5065863;28;19939;-65
2021/04/18 16:01:26;;;;;;;;;;;;;;;;;;5058148;28;19939;-69
2021/04/18 16:03:53;;;;;;;;;;;;;;;;;;5061183;28;20015;-68
2021/04/18 16:06:20;;;;;;;;;;;;;;;;;;5057061;28;19955;-68
2021/04/18 16:08:49;;;;;;;;;;;;;;;;;;5061176;28;19939;-68
2021/04/18 16:11:16;;;;;;;;;;;;;;;;;;5057885;28;19932;-68
2021/04/18 16:13:45;;;;;;;;;;;;;;;;;;5057436;28;19928;-67
2021/04/18 16:16:11;;;;;;;;;;;;;;;;;;5055497;28;19931;-67
2021/04/18 16:18:43;;;;;;;;;;;;;;;;;;5060738;28;19925;-68
2021/04/18 16:21:10;;;;;;;;;;;;;;;;;;5057533;28;19944;-67
2021/04/18 16:23:36;;;;;;;;;;;;;;;;;;5056012;28;19966;-68
2021/04/18 16:26:03;;;;;;;;;;;;;;;;;;5061061;28;19925;-68
2021/04/18 16:28:32;;;;;;;;;;;;;;;;;;5062105;28;20387;-67
2021/04/18 16:30:58;;;;;;;;;;;;;;;;;;5062540;28;19924;-67
2021/04/18 16:33:25;;;;;;;;;;;;;;;;;;5066663;28;19982;-68
2021/04/18 16:35:51;;;;;;;;;;;;;;;;;;5060508;28;19925;-67
2021/04/18 16:38:18;;;;;;;;;;;;;;;;;;5064517;28;19924;-68
2021/04/18 16:40:45;;;;;;;;;;;;;;;;;;5065817;28;19928;-67